createdAt,value
2018-04-28T00:00:17.870Z,40.01
2018-04-28T00:01:56.283Z,40.02
2018-04-28T00:03:32.843Z,40.04
2018-04-28T00:05:09.353Z,40.04
2018-04-28T00:06:46.415Z,40.04
2018-04-28T00:08:23.369Z,40.04
2018-04-28T00:10:00.019Z,40.04
2018-04-28T00:11:40.105Z,40.05
2018-04-28T00:13:17.217Z,40.07
2018-04-28T00:14:57.014Z,40.07
2018-04-28T00:16:34.493Z,40.04
2018-04-28T00:18:11.030Z,40.04
2018-04-28T00:19:48.592Z,40.03
2018-04-28T00:21:26.902Z,40.01
2018-04-28T00:23:05.280Z,39.99
2018-04-28T00:24:41.864Z,40.03
2018-04-28T00:26:18.971Z,40.04
2018-04-28T00:28:00.376Z,40.07
2018-04-28T00:29:37.242Z,40.07
2018-04-28T00:31:15.191Z,40.08
2018-04-28T00:32:52.563Z,40.07
2018-04-28T00:34:29.181Z,40.08
2018-04-28T00:36:07.083Z,40.09
2018-04-28T00:37:46.569Z,40.09
2018-04-28T00:39:24.518Z,40.12
2018-04-28T00:41:01.861Z,40.12
2018-04-28T00:42:38.490Z,40.13
2018-04-28T00:44:15.856Z,40.13
2018-04-28T00:45:53.353Z,40.14
2018-04-28T00:47:34.877Z,40.14
2018-04-28T00:49:12.781Z,40.13
2018-04-28T00:50:50.031Z,40.12
2018-04-28T00:52:27.492Z,40.11
2018-04-28T00:54:06.623Z,40.11
2018-04-28T00:55:43.334Z,40.12
2018-04-28T00:57:24.394Z,40.11
2018-04-28T00:59:01.529Z,40.13
2018-04-28T01:00:38.496Z,40.12
2018-04-28T01:02:16.161Z,40.14
2018-04-28T01:03:53.314Z,40.18
2018-04-28T01:05:30.369Z,40.20
2018-04-28T01:07:06.885Z,40.20
2018-04-28T01:08:44.647Z,40.22
2018-04-28T01:10:21.503Z,40.22
2018-04-28T01:11:59.814Z,40.21
2018-04-28T01:13:36.454Z,40.21
2018-04-28T01:15:14.994Z,40.22
2018-04-28T01:16:51.910Z,40.23
2018-04-28T01:18:28.978Z,40.24
2018-04-28T01:20:06.145Z,40.25
2018-04-28T01:21:42.963Z,40.25
2018-04-28T01:23:19.947Z,40.25
2018-04-28T01:24:57.467Z,40.26
2018-04-28T01:26:39.282Z,40.25
2018-04-28T01:28:16.253Z,40.28
2018-04-28T01:29:52.865Z,40.30
2018-04-28T01:31:30.037Z,40.30
2018-04-28T01:33:06.961Z,40.30
2018-04-28T01:34:43.546Z,40.27
2018-04-28T01:36:20.370Z,40.29
2018-04-28T01:38:04.807Z,40.28
2018-04-28T01:39:42.143Z,40.29
2018-04-28T01:41:18.770Z,40.28
2018-04-28T01:42:56.184Z,40.28
2018-04-28T01:44:33.707Z,40.32
2018-04-28T01:46:10.384Z,40.32
2018-04-28T01:47:52.752Z,40.33
2018-04-28T01:49:29.269Z,40.33
2018-04-28T01:51:06.360Z,40.35
2018-04-28T01:52:42.813Z,40.37
2018-04-28T01:54:20.025Z,40.38
2018-04-28T01:55:58.732Z,40.37
2018-04-28T01:57:36.873Z,40.37
2018-04-28T01:59:13.687Z,40.38
2018-04-28T02:00:51.209Z,40.40
2018-04-28T02:02:28.358Z,40.40
2018-04-28T02:04:05.305Z,40.39
2018-04-28T02:05:42.151Z,40.38
2018-04-28T02:07:19.483Z,40.41
2018-04-28T02:08:58.096Z,40.39
2018-04-28T02:10:36.645Z,40.39
2018-04-28T02:12:14.163Z,40.40
2018-04-28T02:13:50.973Z,40.43
2018-04-28T02:15:27.928Z,40.42
2018-04-28T02:17:05.541Z,40.42
2018-04-28T02:18:42.577Z,40.42
2018-04-28T02:20:21.051Z,40.42
2018-04-28T02:21:57.911Z,40.42
2018-04-28T02:23:34.549Z,40.46
2018-04-28T02:25:11.997Z,40.47
2018-04-28T02:26:48.861Z,40.49
2018-04-28T02:28:28.353Z,40.52
2018-04-28T02:30:08.558Z,40.50
2018-04-28T02:31:45.516Z,40.49
2018-04-28T02:33:22.142Z,40.49
2018-04-28T02:34:59.425Z,40.48
2018-04-28T02:36:38.024Z,40.49
2018-04-28T02:38:16.326Z,40.46
2018-04-28T02:39:55.675Z,40.49
2018-04-28T02:41:36.730Z,40.48
2018-04-28T02:43:13.768Z,40.51
2018-04-28T02:44:54.357Z,40.54
2018-04-28T02:46:31.917Z,40.54
2018-04-28T02:48:08.641Z,40.54
2018-04-28T02:49:47.207Z,40.54
2018-04-28T02:51:24.297Z,40.56
2018-04-28T02:53:08.061Z,40.60
2018-04-28T02:54:46.871Z,40.62
2018-04-28T02:56:24.372Z,40.63
2018-04-28T02:58:01.050Z,40.64
2018-04-28T02:59:37.698Z,40.67
2018-04-28T03:01:15.585Z,40.69
2018-04-28T03:02:52.238Z,40.71
2018-04-28T03:04:30.348Z,40.73
2018-04-28T03:06:07.473Z,40.74
2018-04-28T03:07:45.804Z,40.74
2018-04-28T03:09:24.677Z,40.75
2018-04-28T03:11:01.425Z,40.75
2018-04-28T03:12:37.443Z,40.73
2018-04-28T03:14:14.920Z,40.72
2018-04-28T03:15:51.237Z,40.73
2018-04-28T03:17:28.571Z,40.74
2018-04-28T03:19:05.631Z,40.74
2018-04-28T03:20:43.398Z,40.75
2018-04-28T03:22:19.865Z,40.76
2018-04-28T03:23:56.808Z,40.77
2018-04-28T03:25:33.438Z,40.81
2018-04-28T03:27:10.737Z,40.82
2018-04-28T03:28:47.527Z,40.84
2018-04-28T03:30:23.820Z,40.85
2018-04-28T03:32:00.011Z,40.87
2018-04-28T03:33:36.683Z,40.90
2018-04-28T03:35:13.046Z,40.91
2018-04-28T03:36:50.011Z,40.89
2018-04-28T03:38:26.538Z,40.88
2018-04-28T03:40:03.364Z,40.88
2018-04-28T03:41:39.710Z,40.87
2018-04-28T03:43:20.234Z,40.91
2018-04-28T03:44:56.947Z,40.91
2018-04-28T03:46:34.789Z,40.92
2018-04-28T03:48:11.245Z,40.93
2018-04-28T03:49:47.651Z,40.95
2018-04-28T03:51:24.017Z,40.95
2018-04-28T03:53:05.572Z,40.94
2018-04-28T03:54:42.852Z,40.95
2018-04-28T03:56:19.218Z,40.96
2018-04-28T03:58:12.211Z,40.97
2018-04-28T04:03:50.161Z,40.99
2018-04-28T04:05:26.761Z,40.98
2018-04-28T04:07:03.401Z,40.99
2018-04-28T04:08:39.767Z,40.98
2018-04-28T04:10:15.964Z,40.98
2018-04-28T04:11:52.573Z,41.00
2018-04-28T04:13:37.311Z,41.00
2018-04-28T04:15:16.069Z,41.02
2018-04-28T04:16:52.517Z,41.03
2018-04-28T04:18:29.901Z,41.04
2018-04-28T04:20:06.874Z,41.05
2018-04-28T04:21:43.671Z,41.03
2018-04-28T04:23:20.299Z,41.04
2018-04-28T04:24:56.634Z,41.05
2018-04-28T04:26:33.688Z,41.04
2018-04-28T04:28:11.105Z,41.03
2018-04-28T04:29:47.511Z,41.05
2018-04-28T04:31:24.146Z,41.06
2018-04-28T04:33:00.852Z,41.08
2018-04-28T04:34:40.446Z,41.09
2018-04-28T04:36:17.013Z,41.09
2018-04-28T04:37:53.647Z,41.10
2018-04-28T04:39:30.158Z,41.09
2018-04-28T04:41:07.107Z,41.10
2018-04-28T04:42:49.909Z,41.11
2018-04-28T04:44:27.189Z,41.12
2018-04-28T04:46:04.624Z,41.13
2018-04-28T04:47:41.734Z,41.16
2018-04-28T04:49:18.067Z,41.16
2018-04-28T04:50:56.138Z,41.17
2018-04-28T04:52:32.566Z,41.18
2018-04-28T04:54:10.040Z,41.21
2018-04-28T04:55:46.222Z,41.23
2018-04-28T04:57:22.498Z,41.26
2018-04-28T04:59:03.066Z,41.28
2018-04-28T05:00:39.731Z,41.29
2018-04-28T05:02:16.128Z,41.29
2018-04-28T05:03:52.737Z,41.30
2018-04-28T05:05:29.893Z,41.33
2018-04-28T05:07:07.037Z,41.34
2018-04-28T05:08:43.215Z,41.36
2018-04-28T05:10:19.673Z,41.38
2018-04-28T05:11:56.280Z,41.38
2018-04-28T05:13:33.360Z,41.40
2018-04-28T05:15:18.513Z,41.42
2018-04-28T05:16:57.105Z,41.44
2018-04-28T05:18:33.443Z,41.45
2018-04-28T05:20:14.624Z,41.46
2018-04-28T05:21:50.752Z,41.46
2018-04-28T05:23:27.306Z,41.47
2018-04-28T05:25:03.476Z,41.47
2018-04-28T05:26:40.301Z,41.48
2018-04-28T05:28:26.620Z,41.49
2018-04-28T05:30:05.070Z,41.51
2018-04-28T05:31:41.723Z,41.53
2018-04-28T05:33:22.416Z,41.54
2018-04-28T05:34:58.664Z,41.55
2018-04-28T05:36:34.905Z,41.57
2018-04-28T05:38:19.962Z,41.58
2018-04-28T05:40:00.142Z,41.59
2018-04-28T05:41:40.636Z,41.60
2018-04-28T05:43:18.418Z,41.59
2018-04-28T05:44:55.507Z,41.59
2018-04-28T05:46:32.632Z,41.59
2018-04-28T05:48:09.583Z,41.58
2018-04-28T05:49:49.014Z,41.58
2018-04-28T05:51:34.744Z,41.59
2018-04-28T05:53:11.917Z,41.60
2018-04-28T05:54:49.673Z,41.61
2018-04-28T05:56:26.173Z,41.62
2018-04-28T05:58:03.030Z,41.63
2018-04-28T05:59:42.888Z,41.64
2018-04-28T06:01:31.963Z,41.64
2018-04-28T06:03:14.956Z,41.66
2018-04-28T06:04:51.646Z,41.67
2018-04-28T06:06:28.149Z,41.68
2018-04-28T06:08:12.680Z,41.68
2018-04-28T06:09:49.006Z,41.68
2018-04-28T06:11:26.287Z,41.70
2018-04-28T06:13:07.847Z,41.70
2018-04-28T06:14:50.429Z,41.71
2018-04-28T06:16:26.838Z,41.72
2018-04-28T06:18:04.093Z,41.73
2018-04-28T06:19:41.762Z,41.72
2018-04-28T06:21:18.935Z,41.72
2018-04-28T06:22:55.344Z,41.71
2018-04-28T06:24:32.087Z,41.72
2018-04-28T06:26:08.190Z,41.74
2018-04-28T06:27:44.353Z,41.73
2018-04-28T06:29:20.984Z,41.73
2018-04-28T06:30:57.249Z,41.72
2018-04-28T06:32:33.442Z,41.72
2018-04-28T06:34:10.360Z,41.73
2018-04-28T06:35:46.876Z,41.76
2018-04-28T06:37:23.839Z,41.75
2018-04-28T06:39:03.561Z,41.74
2018-04-28T06:40:39.782Z,41.72
2018-04-28T06:42:16.349Z,41.71
2018-04-28T06:43:52.779Z,41.71
2018-04-28T06:45:28.871Z,41.71
2018-04-28T06:47:05.005Z,41.71
2018-04-28T06:48:42.453Z,41.74
2018-04-28T06:50:18.562Z,41.77
2018-04-28T06:51:54.562Z,41.78
2018-04-28T06:53:30.629Z,41.80
2018-04-28T06:55:07.970Z,41.82
2018-04-28T06:56:45.853Z,41.83
2018-04-28T06:58:22.710Z,41.84
2018-04-28T06:59:59.123Z,41.85
2018-04-28T07:01:35.870Z,41.87
2018-04-28T07:03:12.248Z,41.89
2018-04-28T07:04:48.691Z,41.90
2018-04-28T07:06:24.863Z,41.90
2018-04-28T07:08:01.678Z,41.90
2018-04-28T07:09:37.646Z,41.92
2018-04-28T07:11:17.546Z,41.95
2018-04-28T07:12:53.747Z,41.96
2018-04-28T07:14:29.923Z,41.97
2018-04-28T07:16:08.026Z,42.00
2018-04-28T07:17:45.130Z,42.02
2018-04-28T07:19:25.266Z,42.04
2018-04-28T07:21:01.785Z,42.05
2018-04-28T07:22:42.663Z,42.04
2018-04-28T07:24:19.047Z,42.04
2018-04-28T07:25:55.503Z,42.04
2018-04-28T07:27:31.678Z,42.04
2018-04-28T07:29:07.878Z,42.05
2018-04-28T07:30:44.258Z,42.06
2018-04-28T07:32:20.659Z,42.07
2018-04-28T07:33:57.801Z,42.07
2018-04-28T07:35:33.894Z,42.10
2018-04-28T07:37:11.700Z,42.11
2018-04-28T07:38:48.567Z,42.14
2018-04-28T07:40:28.912Z,42.15
2018-04-28T07:42:05.080Z,42.17
2018-04-28T07:43:42.351Z,42.19
2018-04-28T07:45:19.358Z,42.21
2018-04-28T07:46:56.759Z,42.22
2018-04-28T07:48:32.997Z,42.21
2018-04-28T07:50:09.747Z,42.21
2018-04-28T07:51:46.718Z,42.22
2018-04-28T07:53:23.576Z,42.22
2018-04-28T07:55:00.495Z,42.23
2018-04-28T07:56:37.084Z,42.25
2018-04-28T07:58:13.233Z,42.27
2018-04-28T07:59:49.188Z,42.29
2018-04-28T08:01:25.541Z,42.31
2018-04-28T08:03:02.389Z,42.32
2018-04-28T08:04:38.500Z,42.33
2018-04-28T08:06:14.699Z,42.34
2018-04-28T08:07:51.644Z,42.35
2018-04-28T08:09:28.765Z,42.36
2018-04-28T08:11:04.958Z,42.37
2018-04-28T08:12:41.147Z,42.39
2018-04-28T08:14:18.045Z,42.39
2018-04-28T08:15:54.905Z,42.41
2018-04-28T08:17:31.918Z,42.42
2018-04-28T08:19:08.167Z,42.44
2018-04-28T08:20:44.434Z,42.44
2018-04-28T08:22:21.020Z,42.45
2018-04-28T08:23:57.261Z,42.44
2018-04-28T08:25:33.514Z,42.49
2018-04-28T08:27:09.788Z,42.49
2018-04-28T08:28:46.627Z,42.51
2018-04-28T08:30:24.709Z,42.51
2018-04-28T08:32:01.154Z,42.52
2018-04-28T08:33:37.322Z,42.52
2018-04-28T08:35:14.008Z,42.52
2018-04-28T08:36:50.969Z,42.54
2018-04-28T08:38:27.209Z,42.55
2018-04-28T08:40:04.310Z,42.56
2018-04-28T08:41:41.100Z,42.59
2018-04-28T08:43:17.299Z,42.61
2018-04-28T08:44:53.470Z,42.66
2018-04-28T08:46:29.700Z,42.69
2018-04-28T08:48:06.752Z,42.70
2018-04-28T08:49:42.740Z,42.71
2018-04-28T08:51:18.834Z,42.70
2018-04-28T08:52:55.100Z,42.71
2018-04-28T08:54:31.612Z,42.70
2018-04-28T08:56:08.081Z,42.69
2018-04-28T08:57:45.197Z,42.71
2018-04-28T08:59:22.094Z,42.72
2018-04-28T09:00:59.282Z,42.73
2018-04-28T09:02:36.372Z,42.72
2018-04-28T09:04:13.177Z,42.71
2018-04-28T09:05:49.255Z,42.71
2018-04-28T09:07:27.801Z,42.72
2018-04-28T09:09:03.917Z,42.72
2018-04-28T09:10:40.397Z,42.70
2018-04-28T09:12:18.254Z,42.70
2018-04-28T09:13:55.231Z,42.66
2018-04-28T09:15:31.949Z,42.67
2018-04-28T09:17:08.226Z,42.66
2018-04-28T09:18:44.591Z,42.64
2018-04-28T09:20:21.362Z,42.63
2018-04-28T09:21:58.301Z,42.63
2018-04-28T09:23:34.915Z,42.60
2018-04-28T09:25:11.258Z,42.61
2018-04-28T09:26:48.180Z,42.62
2018-04-28T09:28:24.481Z,42.61
2018-04-28T09:30:02.880Z,42.63
2018-04-28T09:31:39.682Z,42.62
2018-04-28T09:33:16.078Z,42.62
2018-04-28T09:34:52.348Z,42.61
2018-04-28T09:36:28.734Z,42.61
2018-04-28T09:38:05.552Z,42.60
2018-04-28T09:39:42.240Z,42.62
2018-04-28T09:41:18.622Z,42.60
2018-04-28T09:42:55.037Z,42.60
2018-04-28T09:44:31.501Z,42.59
2018-04-28T09:46:08.325Z,42.59
2018-04-28T09:47:45.533Z,42.61
2018-04-28T09:49:21.886Z,42.62
2018-04-28T09:50:58.191Z,42.63
2018-04-28T09:54:12.075Z,42.62
2018-04-28T09:55:48.393Z,42.62
2018-04-28T09:57:24.996Z,42.64
2018-04-28T09:59:02.095Z,42.62
2018-04-28T10:00:42.627Z,42.65
2018-04-28T10:02:19.042Z,42.66
2018-04-28T10:03:55.400Z,42.66
2018-04-28T10:05:33.065Z,42.67
2018-04-28T10:07:09.375Z,42.65
2018-04-28T10:08:45.698Z,42.67
2018-04-28T10:10:22.105Z,42.69
2018-04-28T10:11:59.726Z,42.69
2018-04-28T10:13:36.046Z,42.69
2018-04-28T10:15:15.703Z,42.69
2018-04-28T10:16:52.833Z,42.70
2018-04-28T10:18:29.410Z,42.68
2018-04-28T10:20:06.213Z,42.67
2018-04-28T10:21:42.542Z,42.65
2018-04-28T10:23:18.877Z,42.65
2018-04-28T10:24:55.605Z,42.64
2018-04-28T10:26:32.007Z,42.62
2018-04-28T10:28:08.418Z,42.61
2018-04-28T10:29:46.153Z,42.60
2018-04-28T10:31:23.185Z,42.60
2018-04-28T10:33:00.244Z,42.62
2018-04-28T10:34:36.560Z,42.64
2018-04-28T10:36:13.801Z,42.65
2018-04-28T10:37:50.809Z,42.67
2018-04-28T10:39:27.265Z,42.66
2018-04-28T10:41:04.604Z,42.64
2018-04-28T10:42:40.927Z,42.64
2018-04-28T10:44:17.757Z,42.63
2018-04-28T10:45:54.321Z,42.61
2018-04-28T10:47:30.848Z,42.61
2018-04-28T10:49:07.165Z,42.61
2018-04-28T10:50:43.998Z,42.62
2018-04-28T10:52:20.341Z,42.64
2018-04-28T10:53:56.747Z,42.66
2018-04-28T10:55:33.042Z,42.65
2018-04-28T10:57:09.983Z,42.65
2018-04-28T10:58:46.321Z,42.64
2018-04-28T11:00:23.350Z,42.62
2018-04-28T11:01:59.936Z,42.63
2018-04-28T11:03:36.575Z,42.64
2018-04-28T11:05:12.867Z,42.65
2018-04-28T11:06:49.316Z,42.63
2018-04-28T11:08:27.668Z,42.62
2018-04-28T11:10:05.781Z,42.63
2018-04-28T11:11:42.166Z,42.64
2018-04-28T11:13:18.584Z,42.64
2018-04-28T11:14:55.113Z,42.62
2018-04-28T11:16:32.239Z,42.62
2018-04-28T11:18:09.334Z,42.62
2018-04-28T11:19:45.804Z,42.60
2018-04-28T11:21:23.106Z,42.59
2018-04-28T11:22:59.897Z,42.58
2018-04-28T11:24:37.951Z,42.57
2018-04-28T11:26:14.258Z,42.59
2018-04-28T11:27:50.576Z,42.58
2018-04-28T11:29:27.335Z,42.57
2018-04-28T11:31:04.611Z,42.57
2018-04-28T11:32:40.918Z,42.57
2018-04-28T11:34:17.338Z,42.58
2018-04-28T11:35:54.851Z,42.59
2018-04-28T11:37:31.519Z,42.59
2018-04-28T11:39:08.306Z,42.58
2018-04-28T11:40:44.778Z,42.57
2018-04-28T11:42:24.125Z,42.56
2018-04-28T11:44:00.700Z,42.56
2018-04-28T11:45:37.499Z,42.56
2018-04-28T11:48:48.782Z,42.54
2018-04-28T11:50:25.287Z,42.53
2018-04-28T11:52:02.980Z,42.55
2018-04-28T11:53:42.496Z,42.54
2018-04-28T11:55:19.544Z,42.54
2018-04-28T11:56:55.978Z,42.55
2018-04-28T11:58:32.223Z,42.55
2018-04-28T12:00:09.266Z,42.55
2018-04-28T12:01:50.953Z,42.56
2018-04-28T12:03:28.395Z,42.51
2018-04-28T12:05:04.855Z,42.55
2018-04-28T12:06:41.498Z,42.54
2018-04-28T12:08:18.283Z,42.54
2018-04-28T12:09:54.596Z,42.54
2018-04-28T12:11:32.729Z,42.57
2018-04-28T12:13:09.310Z,42.56
2018-04-28T12:14:46.243Z,42.57
2018-04-28T12:16:22.556Z,42.57
2018-04-28T12:17:59.609Z,42.56
2018-04-28T12:19:35.982Z,42.54
2018-04-28T12:21:13.127Z,42.54
2018-04-28T12:22:50.671Z,42.52
2018-04-28T12:24:27.440Z,42.51
2018-04-28T12:26:03.870Z,42.51
2018-04-28T12:27:40.254Z,42.47
2018-04-28T12:29:16.656Z,42.50
2018-04-28T12:32:28.030Z,42.44
2018-04-28T12:34:04.698Z,42.45
2018-04-28T12:35:41.265Z,42.42
2018-04-28T12:37:17.691Z,42.42
2018-04-28T12:38:55.347Z,42.41
2018-04-28T12:40:32.261Z,42.40
2018-04-28T12:42:08.894Z,42.40
2018-04-28T12:43:45.330Z,42.34
2018-04-28T12:45:22.181Z,42.34
2018-04-28T12:46:59.212Z,42.33
2018-04-28T12:48:35.725Z,42.32
2018-04-28T12:50:12.754Z,42.32
2018-04-28T12:51:49.101Z,42.33
2018-04-28T12:53:25.900Z,42.31
2018-04-28T12:55:03.077Z,42.30
2018-04-28T12:56:39.987Z,42.29
2018-04-28T12:58:16.773Z,42.25
2018-04-28T12:59:53.705Z,42.23
2018-04-28T13:01:30.977Z,42.21
2018-04-28T13:03:07.527Z,42.20
2018-04-28T13:04:43.985Z,42.19
2018-04-28T13:06:20.346Z,42.17
2018-04-28T13:07:56.829Z,42.14
2018-04-28T13:09:33.943Z,42.13
2018-04-28T13:11:10.372Z,42.13
2018-04-28T13:12:47.573Z,42.11
2018-04-28T13:14:24.717Z,42.08
2018-04-28T13:16:02.580Z,42.07
2018-04-28T13:17:39.159Z,42.08
2018-04-28T13:19:16.259Z,42.05
2018-04-28T13:20:52.769Z,42.02
2018-04-28T13:22:29.993Z,42.02
2018-04-28T13:24:06.536Z,42.02
2018-04-28T13:25:44.510Z,42.02
2018-04-28T13:27:20.975Z,42.02
2018-04-28T13:28:57.449Z,42.01
2018-04-28T13:30:33.776Z,42.01
2018-04-28T13:32:11.523Z,41.98
2018-04-28T13:33:47.944Z,41.96
2018-04-28T13:35:25.540Z,41.94
2018-04-28T13:37:02.038Z,41.94
2018-04-28T13:38:38.895Z,41.93
2018-04-28T13:40:16.781Z,41.93
2018-04-28T13:41:53.260Z,41.92
2018-04-28T13:43:29.705Z,41.90
2018-04-28T13:45:17.357Z,41.89
2018-04-28T13:46:53.849Z,41.90
2018-04-28T13:48:31.179Z,41.86
2018-04-28T13:50:08.780Z,41.83
2018-04-28T13:51:45.948Z,41.81
2018-04-28T13:53:22.502Z,41.81
2018-04-28T13:54:58.842Z,41.80
2018-04-28T13:56:36.189Z,41.78
2018-04-28T13:58:13.650Z,41.78
2018-04-28T13:59:50.919Z,41.75
2018-04-28T14:01:27.805Z,41.75
2018-04-28T14:04:42.410Z,41.72
2018-04-28T14:06:18.865Z,41.70
2018-04-28T14:07:56.128Z,41.67
2018-04-28T14:09:33.311Z,41.65
2018-04-28T14:11:13.110Z,41.63
2018-04-28T14:12:49.461Z,41.61
2018-04-28T14:14:25.868Z,41.61
2018-04-28T14:16:02.935Z,41.59
2018-04-28T14:17:39.739Z,41.58
2018-04-28T14:19:17.147Z,41.56
2018-04-28T14:20:54.692Z,41.55
2018-04-28T14:22:31.353Z,41.53
2018-04-28T14:24:08.197Z,41.52
2018-04-28T14:25:44.748Z,41.51
2018-04-28T14:27:21.365Z,41.48
2018-04-28T14:28:58.900Z,41.46
2018-04-28T14:30:35.886Z,41.45
2018-04-28T14:32:15.276Z,41.41
2018-04-28T14:33:52.334Z,41.40
2018-04-28T14:35:29.256Z,41.38
2018-04-28T14:37:06.472Z,41.37
2018-04-28T14:38:43.789Z,41.35
2018-04-28T14:40:20.157Z,41.33
2018-04-28T14:41:57.263Z,41.31
2018-04-28T14:43:34.534Z,41.30
2018-04-28T14:45:12.420Z,41.27
2018-04-28T14:46:49.011Z,41.26
2018-04-28T14:48:25.314Z,41.22
2018-04-28T14:50:01.867Z,41.20
2018-04-28T14:51:38.241Z,41.19
2018-04-28T14:53:15.403Z,41.19
2018-04-28T14:54:52.177Z,41.18
2018-04-28T14:56:29.423Z,41.17
2018-04-28T14:58:06.199Z,41.11
2018-04-28T14:59:42.578Z,41.07
2018-04-28T15:01:19.453Z,41.05
2018-04-28T15:02:55.933Z,41.03
2018-04-28T15:04:32.440Z,41.04
2018-04-28T15:06:08.767Z,41.01
2018-04-28T15:07:45.116Z,40.99
2018-04-28T15:09:21.449Z,40.98
2018-04-28T15:10:58.676Z,40.97
2018-04-28T15:12:34.994Z,40.98
2018-04-28T15:14:12.991Z,40.96
2018-04-28T15:15:49.502Z,40.96
2018-04-28T15:17:25.822Z,40.94
2018-04-28T15:19:03.018Z,40.92
2018-04-28T15:20:39.813Z,40.91
2018-04-28T15:22:17.129Z,40.88
2018-04-28T15:23:53.563Z,40.87
2018-04-28T15:25:29.861Z,40.86
2018-04-28T15:27:06.483Z,40.85
2018-04-28T15:28:42.875Z,40.84
2018-04-28T15:30:20.119Z,40.83
2018-04-28T15:31:57.226Z,40.82
2018-04-28T15:33:34.714Z,40.82
2018-04-28T15:35:11.196Z,40.80
2018-04-28T15:37:14.305Z,40.79
2018-04-28T15:38:56.190Z,40.80
2018-04-28T15:40:34.260Z,40.79
2018-04-28T15:42:17.003Z,40.78
2018-04-28T15:43:57.706Z,40.78
2018-04-28T15:45:35.308Z,40.71
2018-04-28T15:47:11.993Z,40.68
2018-04-28T15:48:49.147Z,40.68
2018-04-28T15:50:25.529Z,40.69
2018-04-28T15:52:03.165Z,40.65
2018-04-28T15:53:39.686Z,40.64
2018-04-28T15:55:16.469Z,40.64
2018-04-28T15:56:52.980Z,40.63
2018-04-28T15:58:30.152Z,40.59
2018-04-28T16:00:08.839Z,40.58
2018-04-28T16:01:45.874Z,40.57
2018-04-28T16:03:22.663Z,40.57
2018-04-28T16:05:00.166Z,40.56
2018-04-28T16:06:39.330Z,40.57
2018-04-28T16:08:15.795Z,40.55
2018-04-28T16:09:52.150Z,40.54
2018-04-28T16:11:30.439Z,40.53
2018-04-28T16:13:06.971Z,40.51
2018-04-28T16:14:43.640Z,40.49
2018-04-28T16:16:20.369Z,40.47
2018-04-28T16:17:57.898Z,40.45
2018-04-28T16:19:35.964Z,40.43
2018-04-28T16:21:12.462Z,40.40
2018-04-28T16:22:48.989Z,40.40
2018-04-28T16:24:25.566Z,40.38
2018-04-28T16:26:02.063Z,40.38
2018-04-28T16:27:40.396Z,40.34
2018-04-28T16:29:18.442Z,40.33
2018-04-28T16:30:56.030Z,40.32
2018-04-28T16:32:33.101Z,40.31
2018-04-28T16:34:09.661Z,40.31
2018-04-28T16:35:53.159Z,40.29
2018-04-28T16:37:31.090Z,40.25
2018-04-28T16:39:08.207Z,40.23
2018-04-28T16:40:44.596Z,40.22
2018-04-28T16:42:21.812Z,40.19
2018-04-28T16:43:58.862Z,40.17
2018-04-28T16:45:35.303Z,40.17
2018-04-28T16:47:11.593Z,40.15
2018-04-28T16:48:48.687Z,40.14
2018-04-28T16:50:26.687Z,40.13
2018-04-28T16:52:03.752Z,40.13
2018-04-28T16:53:41.000Z,40.10
2018-04-28T16:55:17.364Z,40.09
2018-04-28T16:56:53.813Z,40.06
2018-04-28T16:58:30.206Z,40.03
2018-04-28T17:00:10.697Z,40.04
2018-04-28T17:01:47.311Z,40.03
2018-04-28T17:03:24.304Z,40.03
2018-04-28T17:05:01.552Z,40.03
2018-04-28T17:06:38.774Z,40.02
2018-04-28T17:08:20.280Z,40.01
2018-04-28T17:09:57.087Z,39.98
2018-04-28T17:11:33.518Z,39.97
2018-04-28T17:13:10.487Z,39.96
2018-04-28T17:14:47.942Z,39.96
2018-04-28T17:16:25.102Z,39.94
2018-04-28T17:18:01.551Z,39.94
2018-04-28T17:19:38.206Z,39.94
2018-04-28T17:21:14.603Z,39.92
2018-04-28T17:22:51.512Z,39.91
2018-04-28T17:24:28.218Z,39.90
2018-04-28T17:26:04.577Z,39.89
2018-04-28T17:27:42.713Z,39.90
2018-04-28T17:29:19.161Z,39.88
2018-04-28T17:30:59.686Z,39.84
2018-04-28T17:32:36.328Z,39.83
2018-04-28T17:34:13.718Z,39.82
2018-04-28T17:35:52.765Z,39.80
2018-04-28T17:37:32.827Z,39.79
2018-04-28T17:39:09.455Z,39.75
2018-04-28T17:40:46.826Z,39.70
2018-04-28T17:42:23.280Z,39.68
2018-04-28T17:43:59.642Z,39.67
2018-04-28T17:45:36.342Z,39.65
2018-04-28T17:47:14.059Z,39.63
2018-04-28T17:48:51.569Z,39.63
2018-04-28T17:50:28.026Z,39.63
2018-04-28T17:52:04.493Z,39.64
2018-04-28T17:53:41.385Z,39.62
2018-04-28T17:55:25.475Z,39.59
2018-04-28T17:57:01.936Z,39.58
2018-04-28T17:58:38.402Z,39.57
2018-04-28T18:00:18.542Z,39.54
2018-04-28T18:01:56.308Z,39.53
2018-04-28T18:03:33.494Z,39.51
2018-04-28T18:05:11.569Z,39.50
2018-04-28T18:06:49.445Z,39.48
2018-04-28T18:08:27.896Z,39.47
2018-04-28T18:10:04.943Z,39.46
2018-04-28T18:11:41.663Z,39.44
2018-04-28T18:13:19.296Z,39.41
2018-04-28T18:14:56.686Z,39.39
2018-04-28T18:16:33.653Z,39.35
2018-04-28T18:18:10.113Z,39.33
2018-04-28T18:19:48.133Z,39.30
2018-04-28T18:21:25.318Z,39.30
2018-04-28T18:23:01.728Z,39.29
2018-04-28T18:24:39.689Z,39.28
2018-04-28T18:26:16.812Z,39.27
2018-04-28T18:27:53.563Z,39.28
2018-04-28T18:29:31.761Z,39.26
2018-04-28T18:31:10.743Z,39.25
2018-04-28T18:32:58.846Z,39.25
2018-04-28T18:34:37.571Z,39.24
2018-04-28T18:36:14.897Z,39.23
2018-04-28T18:37:52.177Z,39.21
2018-04-28T18:39:29.150Z,39.21
2018-04-28T18:41:06.344Z,39.20
2018-04-28T18:42:45.795Z,39.20
2018-04-28T18:44:26.038Z,39.19
2018-04-28T18:46:03.435Z,39.18
2018-04-28T18:47:43.778Z,39.20
2018-04-28T18:49:22.397Z,39.17
2018-04-28T18:50:59.619Z,39.16
2018-04-28T18:52:36.092Z,39.17
2018-04-28T18:54:12.510Z,39.16
2018-04-28T18:55:48.958Z,39.18
2018-04-28T18:57:26.471Z,39.18
2018-04-28T18:59:02.844Z,39.19
2018-04-28T19:00:40.175Z,39.19
2018-04-28T19:02:18.186Z,39.20
2018-04-28T19:03:54.696Z,39.20
2018-04-28T19:05:31.359Z,39.19
2018-04-28T19:07:07.907Z,39.16
2018-04-28T19:08:45.276Z,39.16
2018-04-28T19:10:21.754Z,39.11
2018-04-28T19:11:58.216Z,39.12
2018-04-28T19:13:34.663Z,39.13
2018-04-28T19:15:12.909Z,39.14
2018-04-28T19:16:49.610Z,39.15
2018-04-28T19:18:26.411Z,39.17
2018-04-28T19:20:03.875Z,39.14
2018-04-28T19:21:41.726Z,39.09
2018-04-28T19:23:18.351Z,39.09
2018-04-28T19:24:56.119Z,39.08
2018-04-28T19:26:32.574Z,39.09
2018-04-28T19:28:09.969Z,39.10
2018-04-28T19:29:46.821Z,39.11
2018-04-28T19:31:23.279Z,39.11
2018-04-28T19:33:00.133Z,39.17
2018-04-28T19:34:36.817Z,39.16
2018-04-28T19:36:42.048Z,39.15
2018-04-28T19:38:18.730Z,39.16
2018-04-28T19:39:55.804Z,39.14
2018-04-28T19:41:35.815Z,39.16
2018-04-28T19:43:12.375Z,39.15
2018-04-28T19:44:52.035Z,39.14
2018-04-28T19:46:28.696Z,39.15
2018-04-28T19:48:06.993Z,39.15
2018-04-28T19:49:44.032Z,39.16
2018-04-28T19:51:20.921Z,39.12
2018-04-28T19:52:57.548Z,39.10
2018-04-28T19:54:35.018Z,39.09
2018-04-28T19:56:12.890Z,39.07
2018-04-28T19:57:50.663Z,39.05
2018-04-28T19:59:28.121Z,39.08
2018-04-28T20:01:05.200Z,39.09
2018-04-28T20:02:41.846Z,39.09
2018-04-28T20:04:19.523Z,39.09
2018-04-28T20:05:56.790Z,39.08
2018-04-28T20:07:33.323Z,39.07
2018-04-28T20:09:10.023Z,39.07
2018-04-28T20:10:48.959Z,39.06
2018-04-28T20:12:26.953Z,39.07
2018-04-28T20:14:03.622Z,39.04
2018-04-28T20:15:40.762Z,39.00
2018-04-28T20:17:17.874Z,38.98
2018-04-28T20:18:54.716Z,38.97
2018-04-28T20:20:31.180Z,38.97
2018-04-28T20:22:21.385Z,38.98
2018-04-28T20:26:05.143Z,38.99
2018-04-28T20:27:42.084Z,38.92
2018-04-28T20:29:18.435Z,38.88
2018-04-28T20:30:55.682Z,38.86
2018-04-28T20:32:32.206Z,38.83
2018-04-28T20:34:09.127Z,38.82
2018-04-28T20:35:45.552Z,38.80
2018-04-28T20:37:22.001Z,38.80
2018-04-28T20:38:59.202Z,38.81
2018-04-28T20:40:36.020Z,38.82
2018-04-28T20:42:13.603Z,38.84
2018-04-28T20:43:50.470Z,38.85
2018-04-28T20:45:26.965Z,38.83
2018-04-28T20:47:03.589Z,38.81
2018-04-28T20:48:40.154Z,38.79
2018-04-28T20:50:16.626Z,38.78
2018-04-28T20:51:53.875Z,38.78
2018-04-28T20:53:30.333Z,38.75
2018-04-28T20:55:06.801Z,38.77
2018-04-28T20:56:43.228Z,38.77
2018-04-28T20:58:20.746Z,38.77
2018-04-28T20:59:57.282Z,38.76
2018-04-28T21:01:33.836Z,38.76
2018-04-28T21:03:13.047Z,38.77
2018-04-28T21:04:50.334Z,38.77
2018-04-28T21:06:30.350Z,38.77